Time;durP1;ratioP1;P1;durP2;ratioP2;P2;SDS_P1;SDS_P2;PMS_P1;PMS_P2;Temp;Humidity;BMP_temperature;BMP_pressure;BME280_temperature;BME280_humidity;BME280_pressure;Samples;Min_cycle;Max_cycle;Signal;HPM_P1;HPM_P2
2022/01/26 00:07:06;;;;;;;69.63;26.77;;;1.00;99.90;;;;;;4945333;29;20237;-80
2022/01/26 00:09:32;;;;;;;78.80;28.00;;;1.00;99.90;;;;;;4944737;29;20305;-80
2022/01/26 00:11:59;;;;;;;63.53;26.00;;;1.10;99.90;;;;;;4943237;29;20210;-82
2022/01/26 00:14:28;;;;;;;77.60;26.45;;;1.10;99.90;;;;;;4943887;29;20306;-77
2022/01/26 00:16:55;;;;;;;66.28;26.63;;;1.00;99.90;;;;;;4944073;29;20210;-81
2022/01/26 00:19:25;;;;;;;89.15;29.42;;;1.10;99.90;;;;;;4943846;29;20250;-80
2022/01/26 00:21:54;;;;;;;70.03;27.50;;;1.10;99.90;;;;;;4942986;29;20242;-80
2022/01/26 00:24:50;;;;;;;77.18;28.40;;;1.10;99.90;;;;;;4943533;29;20635;-79
2022/01/26 00:27:34;;;;;;;79.95;27.67;;;1.10;99.90;;;;;;4943338;29;20237;-81
2022/01/26 00:31:13;;;;;;;72.55;26.42;;;1.10;99.90;;;;;;4943192;29;20213;-80
2022/01/26 00:39:03;;;;;;;77.15;27.05;;;1.10;99.90;;;;;;4944567;29;20219;-77
2022/01/26 00:41:37;;;;;;;83.70;28.80;;;1.00;99.90;;;;;;4942816;29;20586;-79
2022/01/26 00:47:08;;;;;;;73.63;27.20;;;1.00;99.90;;;;;;4947217;29;20297;-78
2022/01/26 00:49:38;;;;;;;76.70;26.42;;;1.00;99.90;;;;;;4948689;29;20245;-78
2022/01/26 00:52:26;;;;;;;80.53;28.52;;;1.00;99.90;;;;;;4949919;29;20225;-77
2022/01/26 00:55:04;;;;;;;87.40;28.30;;;1.00;99.90;;;;;;4949563;29;20238;-77
2022/01/26 00:57:35;;;;;;;93.35;29.63;;;1.00;99.90;;;;;;4948771;29;20210;-76
2022/01/26 01:00:06;;;;;;;86.43;28.55;;;1.00;99.90;;;;;;4949480;29;20231;-79
2022/01/26 01:02:34;;;;;;;77.82;27.83;;;1.00;99.90;;;;;;4950358;29;20210;-80
2022/01/26 01:05:13;;;;;;;80.15;29.23;;;1.00;99.90;;;;;;4950628;29;20253;-80
2022/01/26 01:07:41;;;;;;;74.90;27.33;;;0.90;99.90;;;;;;4952086;29;20230;-81
2022/01/26 01:10:09;;;;;;;77.78;26.30;;;1.00;99.90;;;;;;4952678;29;20675;-80
2022/01/26 01:12:41;;;;;;;90.13;28.08;;;0.90;99.90;;;;;;4951790;29;20211;-81
2022/01/26 01:15:11;;;;;;;80.63;26.85;;;0.90;99.90;;;;;;4950690;29;20242;-80
2022/01/26 01:17:44;;;;;;;78.70;27.65;;;0.90;99.90;;;;;;4953091;29;20218;-80
2022/01/26 01:20:24;;;;;;;92.05;29.65;;;0.90;99.90;;;;;;4950619;29;20211;-77
2022/01/26 01:23:09;;;;;;;75.70;26.05;;;0.90;99.90;;;;;;4950396;29;20205;-77
2022/01/26 01:26:06;;;;;;;71.35;25.98;;;0.90;99.90;;;;;;4949771;29;20249;-79
2022/01/26 01:28:49;;;;;;;90.50;27.17;;;0.90;99.90;;;;;;4950138;29;20210;-77
2022/01/26 01:31:28;;;;;;;84.65;27.23;;;0.90;99.90;;;;;;4949016;29;20191;-76
2022/01/26 01:33:56;;;;;;;82.60;26.80;;;0.80;99.90;;;;;;4947465;29;20195;-77
2022/01/26 01:36:23;;;;;;;72.22;26.58;;;0.90;99.90;;;;;;4949246;29;20230;-76
2022/01/26 01:38:50;;;;;;;74.25;25.73;;;0.90;99.90;;;;;;4946682;29;20219;-77
2022/01/26 01:41:17;;;;;;;79.85;26.10;;;0.90;99.90;;;;;;4945431;29;20207;-77
2022/01/26 01:43:44;;;;;;;102.72;26.10;;;0.90;99.90;;;;;;4944623;29;20211;-76
2022/01/26 01:46:11;;;;;;;65.93;24.17;;;1.00;99.90;;;;;;4946583;29;20265;-77
2022/01/26 01:48:38;;;;;;;88.00;26.63;;;1.00;99.90;;;;;;4945580;29;20210;-76
2022/01/26 01:51:10;;;;;;;75.32;26.50;;;0.90;99.90;;;;;;4952903;29;20274;-77
2022/01/26 01:53:40;;;;;;;81.28;27.60;;;0.90;99.90;;;;;;4961121;28;20207;-79
2022/01/26 01:56:08;;;;;;;79.00;26.75;;;0.80;99.90;;;;;;4957159;29;20242;-77
2022/01/26 01:58:38;;;;;;;69.95;25.40;;;0.80;99.90;;;;;;4954260;29;20211;-77
2022/01/26 02:01:07;;;;;;;74.20;24.42;;;0.90;99.90;;;;;;4950703;29;20218;-77
2022/01/26 02:03:34;;;;;;;89.20;26.30;;;1.00;99.90;;;;;;4952191;29;20214;-77
2022/01/26 02:06:01;;;;;;;66.85;23.08;;;0.90;99.90;;;;;;4958150;29;20238;-78
2022/01/26 02:08:29;;;;;;;80.43;26.95;;;0.80;99.90;;;;;;4961072;29;20215;-79
2022/01/26 02:10:56;;;;;;;70.53;23.48;;;0.80;99.90;;;;;;4962392;28;20199;-80
2022/01/26 02:13:26;;;;;;;78.63;24.00;;;0.80;99.90;;;;;;4961773;28;20206;-79
2022/01/26 02:16:01;;;;;;;72.32;24.77;;;0.80;99.90;;;;;;4959126;28;20226;-77
2022/01/26 02:21:53;;;;;;;73.95;25.15;;;0.80;99.90;;;;;;4951411;29;20325;-79
2022/01/26 02:49:50;;;;;;;65.80;24.25;;;0.40;99.90;;;;;;4945857;29;20699;-78
2022/01/26 02:52:39;;;;;;;87.57;25.00;;;0.50;99.90;;;;;;4947162;29;20193;-80
2022/01/26 02:55:21;;;;;;;80.57;23.33;;;0.50;99.90;;;;;;4946208;29;20329;-79
2022/01/26 02:58:07;;;;;;;68.30;24.20;;;0.50;99.90;;;;;;4948798;29;20217;-78
2022/01/26 03:00:43;;;;;;;96.90;24.05;;;0.50;99.90;;;;;;4948541;29;20214;-77
2022/01/26 03:03:15;;;;;;;75.25;25.98;;;0.50;99.90;;;;;;4950857;29;20260;-80
2022/01/26 03:05:49;;;;;;;71.43;25.73;;;0.40;99.90;;;;;;4949206;29;20238;-80
2022/01/26 03:08:18;;;;;;;77.03;25.15;;;0.50;99.90;;;;;;4946729;29;20618;-77
2022/01/26 03:10:51;;;;;;;86.90;27.23;;;0.50;99.90;;;;;;4938537;29;20301;-77
2022/01/26 03:13:22;;;;;;;86.82;27.40;;;0.50;99.90;;;;;;4938277;29;20288;-77
2022/01/26 03:15:53;;;;;;;81.45;26.77;;;0.60;99.90;;;;;;4938893;29;20231;-76
2022/01/26 03:21:11;;;;;;;76.25;27.33;;;0.60;99.90;;;;;;4938238;29;20202;-77
2022/01/26 03:29:27;;;;;;;79.60;23.40;;;0.50;99.90;;;;;;4938862;29;20238;-76
2022/01/26 03:34:39;;;;;;;65.53;24.15;;;0.40;99.90;;;;;;4939056;29;20647;-76
2022/01/26 03:37:08;;;;;;;67.82;22.25;;;0.40;99.90;;;;;;4939311;29;20202;-78
2022/01/26 03:39:42;;;;;;;67.28;22.65;;;0.40;99.90;;;;;;4938700;29;20265;-77
2022/01/26 03:42:14;;;;;;;74.15;22.98;;;0.50;99.90;;;;;;4938734;29;20215;-77
2022/01/26 03:44:41;;;;;;;60.13;21.88;;;0.40;99.90;;;;;;4938380;29;20241;-77
2022/01/26 03:47:08;;;;;;;63.22;21.50;;;0.50;99.90;;;;;;4944653;29;20729;-77
2022/01/26 03:49:36;;;;;;;68.47;23.60;;;0.50;99.90;;;;;;4938456;29;20198;-77
2022/01/26 03:52:03;;;;;;;65.43;20.85;;;0.50;99.90;;;;;;4938377;29;20679;-76
2022/01/26 03:54:30;;;;;;;56.67;20.42;;;0.50;99.90;;;;;;4938186;29;20226;-77
2022/01/26 03:56:56;;;;;;;62.10;20.63;;;0.50;99.90;;;;;;4938418;29;20226;-77
2022/01/26 03:59:25;;;;;;;56.55;20.70;;;0.50;99.90;;;;;;4938314;29;20210;-77
2022/01/26 04:01:53;;;;;;;58.28;19.13;;;0.40;99.90;;;;;;4938850;29;20555;-76
2022/01/26 04:04:20;;;;;;;55.72;20.90;;;0.40;99.90;;;;;;4937882;29;20690;-76
2022/01/26 04:06:48;;;;;;;48.85;20.35;;;0.40;99.90;;;;;;4943035;29;20234;-78
2022/01/26 04:09:18;;;;;;;57.67;21.13;;;0.50;99.90;;;;;;4942501;29;20210;-76
2022/01/26 04:11:48;;;;;;;55.45;22.02;;;0.50;99.90;;;;;;4940397;29;20215;-76
2022/01/26 04:14:19;;;;;;;54.22;20.13;;;0.60;99.90;;;;;;4938966;29;20625;-77
2022/01/26 04:16:48;;;;;;;57.72;20.08;;;0.60;99.90;;;;;;4941016;29;20195;-77
2022/01/26 04:19:16;;;;;;;48.20;18.52;;;0.60;99.90;;;;;;4939887;29;20218;-76
2022/01/26 04:24:27;;;;;;;56.85;20.60;;;0.60;99.90;;;;;;4943340;29;20233;-77
2022/01/26 04:26:59;;;;;;;57.25;20.80;;;0.70;99.90;;;;;;4949153;29;20210;-78
2022/01/26 04:29:28;;;;;;;53.42;20.02;;;0.60;99.90;;;;;;4947901;29;20219;-77
2022/01/26 04:31:58;;;;;;;50.78;18.30;;;0.50;99.90;;;;;;4937275;29;20214;-77
2022/01/26 04:34:26;;;;;;;53.75;20.75;;;0.40;99.90;;;;;;4938068;29;20249;-77
2022/01/26 04:36:59;;;;;;;50.65;18.63;;;0.50;99.90;;;;;;4937779;29;20622;-77
2022/01/26 04:39:30;;;;;;;56.33;21.55;;;0.60;99.90;;;;;;4938274;29;20713;-78
2022/01/26 04:42:01;;;;;;;54.83;20.33;;;0.60;99.90;;;;;;4937527;29;20220;-76
2022/01/26 04:44:33;;;;;;;44.90;17.88;;;0.60;99.90;;;;;;4937084;29;20230;-76
2022/01/26 04:47:02;;;;;;;50.47;18.67;;;0.60;99.90;;;;;;4937518;29;20237;-77
2022/01/26 04:49:33;;;;;;;46.95;18.48;;;0.60;99.90;;;;;;4937299;29;20726;-76
2022/01/26 04:52:00;;;;;;;54.20;19.40;;;0.60;99.90;;;;;;4937286;29;20210;-76
2022/01/26 04:54:27;;;;;;;47.25;21.10;;;0.60;99.90;;;;;;4937553;29;20658;-77
2022/01/26 04:56:54;;;;;;;52.28;19.10;;;0.50;99.90;;;;;;4943771;29;20233;-77
2022/01/26 04:59:21;;;;;;;53.15;18.55;;;0.40;99.90;;;;;;4947038;29;20595;-77
2022/01/26 05:01:48;;;;;;;49.88;19.50;;;0.40;99.90;;;;;;4947190;29;20233;-77
2022/01/26 05:04:16;;;;;;;48.72;18.08;;;0.40;99.90;;;;;;4948349;29;20226;-77
2022/01/26 05:06:43;;;;;;;46.35;17.85;;;0.50;99.90;;;;;;4958523;23;20262;-77
2022/01/26 05:09:10;;;;;;;43.28;20.50;;;0.50;99.90;;;;;;4935266;29;20245;-77
2022/01/26 05:11:39;;;;;;;52.17;19.27;;;0.40;99.90;;;;;;4915733;29;20211;-77
2022/01/26 05:14:07;;;;;;;41.88;17.45;;;0.40;99.90;;;;;;4916873;29;20215;-78
2022/01/26 05:16:33;;;;;;;45.78;18.70;;;0.40;99.90;;;;;;4934660;29;20223;-78
2022/01/26 05:19:01;;;;;;;47.83;18.40;;;0.50;99.90;;;;;;4925882;29;20214;-78
2022/01/26 05:21:30;;;;;;;50.47;19.50;;;0.50;99.90;;;;;;4915584;29;20628;-78
2022/01/26 05:23:57;;;;;;;47.67;19.25;;;0.50;99.90;;;;;;4923159;29;20645;-77
2022/01/26 05:26:24;;;;;;;45.53;20.55;;;0.50;99.90;;;;;;4934832;29;20333;-79
2022/01/26 05:28:57;;;;;;;52.13;20.48;;;0.50;99.90;;;;;;4930855;29;20227;-77
2022/01/26 05:31:24;;;;;;;52.85;18.73;;;0.50;99.90;;;;;;4933248;29;20199;-78
2022/01/26 05:33:51;;;;;;;44.92;17.40;;;0.50;99.90;;;;;;4947738;29;20233;-78
2022/01/26 05:36:18;;;;;;;61.65;21.70;;;0.60;99.90;;;;;;4945192;29;20238;-78
2022/01/26 05:38:46;;;;;;;56.95;20.02;;;0.60;99.90;;;;;;4943692;29;20704;-77
2022/01/26 05:41:13;;;;;;;47.15;19.52;;;0.50;99.90;;;;;;4940441;29;20221;-78
2022/01/26 05:43:40;;;;;;;51.38;20.58;;;0.50;99.90;;;;;;4938327;29;20591;-78
2022/01/26 05:46:11;;;;;;;42.45;20.20;;;0.50;99.90;;;;;;4939735;29;20227;-78
2022/01/26 05:48:43;;;;;;;62.47;20.70;;;0.60;99.90;;;;;;4940870;29;20718;-78
2022/01/26 05:51:11;;;;;;;54.03;22.00;;;0.60;99.90;;;;;;4942280;29;20202;-79
2022/01/26 05:53:38;;;;;;;58.88;21.13;;;0.70;99.90;;;;;;4941907;29;20321;-78
2022/01/26 05:56:07;;;;;;;64.28;21.73;;;0.60;99.90;;;;;;4940613;29;20227;-78
2022/01/26 05:58:35;;;;;;;55.92;20.88;;;0.70;99.90;;;;;;4940884;29;20241;-79
2022/01/26 06:01:02;;;;;;;52.72;20.20;;;0.70;99.90;;;;;;4942350;29;20219;-78
2022/01/26 06:03:30;;;;;;;63.20;23.73;;;0.70;99.90;;;;;;4956094;29;20211;-77
2022/01/26 06:05:58;;;;;;;46.22;20.02;;;0.60;99.90;;;;;;4946502;29;20322;-78
2022/01/26 06:08:26;;;;;;;65.47;21.85;;;0.70;99.90;;;;;;4956065;29;20321;-78
2022/01/26 06:10:55;;;;;;;51.40;20.45;;;0.70;99.90;;;;;;4947579;29;20290;-78
2022/01/26 06:13:23;;;;;;;57.10;20.65;;;0.70;99.90;;;;;;4944935;29;20415;-77
2022/01/26 06:15:50;;;;;;;65.18;20.90;;;0.70;99.90;;;;;;4946715;29;20238;-78
2022/01/26 06:18:17;;;;;;;60.00;22.65;;;0.70;99.90;;;;;;4940596;29;20278;-77
2022/01/26 06:20:44;;;;;;;56.13;21.63;;;0.70;99.90;;;;;;4939491;29;20791;-78
2022/01/26 06:23:11;;;;;;;64.28;22.92;;;0.70;99.90;;;;;;4938674;29;20210;-77
2022/01/26 06:25:38;;;;;;;66.00;21.58;;;0.80;99.90;;;;;;4938067;29;20714;-78
2022/01/26 06:28:08;;;;;;;58.95;24.55;;;0.80;99.90;;;;;;4937363;29;20802;-77
2022/01/26 06:30:37;;;;;;;56.42;23.23;;;0.70;99.90;;;;;;4937507;29;20274;-78
2022/01/26 06:33:04;;;;;;;69.47;23.25;;;0.70;99.90;;;;;;4937481;29;20253;-78
2022/01/26 06:35:32;;;;;;;54.75;20.65;;;0.70;99.90;;;;;;4937532;29;20237;-78
2022/01/26 06:37:58;;;;;;;55.50;21.63;;;0.70;99.90;;;;;;4937469;29;20310;-78
2022/01/26 06:40:25;;;;;;;63.38;23.75;;;0.70;99.90;;;;;;4937208;29;20298;-78
2022/01/26 06:42:55;;;;;;;59.88;22.75;;;0.60;99.90;;;;;;4936070;29;20207;-78
2022/01/26 06:45:25;;;;;;;53.97;22.33;;;0.60;99.90;;;;;;4937769;28;20236;-77
2022/01/26 06:48:12;;;;;;;58.30;23.50;;;0.60;99.90;;;;;;4937628;29;20576;-78
2022/01/26 06:50:40;;;;;;;65.57;22.65;;;0.60;99.90;;;;;;4936744;29;20214;-79
2022/01/26 06:53:07;;;;;;;67.22;25.00;;;0.70;99.90;;;;;;4936743;29;20218;-78
2022/01/26 06:55:34;;;;;;;56.13;21.73;;;0.70;99.90;;;;;;4936965;29;20710;-78
2022/01/26 06:58:02;;;;;;;63.00;23.83;;;0.70;99.90;;;;;;4937437;29;20754;-77
2022/01/26 07:00:29;;;;;;;61.28;22.73;;;0.60;99.90;;;;;;4937382;29;20226;-78
2022/01/26 07:02:57;;;;;;;60.70;24.60;;;0.60;99.90;;;;;;4937684;29;20320;-77
2022/01/26 07:05:24;;;;;;;71.78;26.48;;;0.60;99.90;;;;;;4937188;29;20243;-78
2022/01/26 07:07:51;;;;;;;71.95;24.73;;;0.60;99.90;;;;;;4941718;29;20773;-77
2022/01/26 07:10:19;;;;;;;68.05;24.38;;;0.60;99.90;;;;;;4941541;29;20685;-77
2022/01/26 07:12:46;;;;;;;70.55;24.70;;;0.60;99.90;;;;;;4936848;29;20673;-77
2022/01/26 07:23:48;;;;;;;68.45;25.05;;;0.40;99.90;;;;;;4936608;29;20218;-79
2022/01/26 07:26:14;;;;;;;82.20;24.63;;;0.40;99.90;;;;;;4936769;29;20235;-78
2022/01/26 07:28:41;;;;;;;71.07;23.25;;;0.40;99.90;;;;;;4937531;29;20230;-78
2022/01/26 07:31:09;;;;;;;66.90;22.52;;;0.50;99.90;;;;;;4936736;29;20223;-78
2022/01/26 07:33:39;;;;;;;64.38;20.75;;;0.50;99.90;;;;;;4937424;29;20597;-77
2022/01/26 07:36:06;;;;;;;51.10;22.05;;;0.40;99.90;;;;;;4938976;29;20298;-78
2022/01/26 07:38:33;;;;;;;60.00;23.45;;;0.40;99.90;;;;;;4938741;29;20210;-77
2022/01/26 07:41:01;;;;;;;68.53;23.40;;;0.40;99.90;;;;;;4939061;29;20221;-78
2022/01/26 07:43:28;;;;;;;50.20;21.23;;;0.40;99.90;;;;;;4948095;29;20226;-78
2022/01/26 07:45:54;;;;;;;46.60;18.25;;;0.50;99.90;;;;;;4953661;29;20294;-78
2022/01/26 07:48:22;;;;;;;54.20;22.08;;;0.50;99.90;;;;;;4949827;29;20241;-76
2022/01/26 07:50:52;;;;;;;55.78;19.85;;;0.40;99.90;;;;;;4947522;29;20211;-76
2022/01/26 07:53:20;;;;;;;42.80;19.90;;;0.30;99.90;;;;;;4946054;29;20210;-78
2022/01/26 07:55:48;;;;;;;48.85;19.20;;;0.30;99.90;;;;;;4944051;29;20324;-77
2022/01/26 07:58:15;;;;;;;54.38;21.05;;;0.30;99.90;;;;;;4942101;29;20210;-77
2022/01/26 08:00:42;;;;;;;47.95;19.50;;;0.40;99.90;;;;;;4942548;29;20237;-77
2022/01/26 08:03:09;;;;;;;49.47;20.13;;;0.40;99.90;;;;;;4941559;29;20253;-77
2022/01/26 08:05:36;;;;;;;52.38;21.08;;;0.40;99.90;;;;;;4947138;28;20309;-75
2022/01/26 08:08:05;;;;;;;47.28;18.15;;;0.40;99.90;;;;;;4952617;28;20237;-78
2022/01/26 08:10:32;;;;;;;45.13;19.67;;;0.40;99.90;;;;;;4943518;29;20215;-77
2022/01/26 08:12:59;;;;;;;42.17;18.92;;;0.50;99.90;;;;;;4943644;29;20214;-77
2022/01/26 08:15:26;;;;;;;41.05;17.50;;;0.50;99.90;;;;;;4952252;29;20321;-76
2022/01/26 08:17:53;;;;;;;50.63;20.23;;;0.40;99.90;;;;;;4954332;29;20210;-77
2022/01/26 08:20:22;;;;;;;43.92;18.30;;;0.40;99.90;;;;;;4955958;29;20266;-76
2022/01/26 08:22:49;;;;;;;38.63;18.08;;;0.50;99.90;;;;;;4956202;28;20222;-77
2022/01/26 08:25:18;;;;;;;35.15;15.13;;;0.50;99.90;;;;;;4956673;28;20259;-75
2022/01/26 08:27:52;;;;;;;36.50;17.95;;;0.50;99.90;;;;;;4953504;29;20278;-76
2022/01/26 08:30:20;;;;;;;38.97;18.63;;;0.50;99.90;;;;;;4956090;29;20223;-77
2022/01/26 08:32:47;;;;;;;46.40;20.30;;;0.50;99.90;;;;;;4955697;28;20206;-76
2022/01/26 08:35:14;;;;;;;39.63;18.92;;;0.50;99.90;;;;;;4953518;29;20223;-76
2022/01/26 08:37:41;;;;;;;40.58;19.45;;;0.50;99.90;;;;;;4953253;29;20250;-75
2022/01/26 08:40:08;;;;;;;43.20;17.33;;;0.50;99.90;;;;;;4952329;29;20226;-77
2022/01/26 08:42:37;;;;;;;45.20;19.17;;;0.50;99.90;;;;;;4954180;29;20206;-77
2022/01/26 08:45:06;;;;;;;41.92;17.80;;;0.50;99.90;;;;;;4953212;29;20231;-78
2022/01/26 08:47:33;;;;;;;43.72;18.23;;;0.60;99.90;;;;;;4949265;29;20225;-78
2022/01/26 08:50:00;;;;;;;39.13;17.48;;;0.50;99.90;;;;;;4952372;29;20210;-77
2022/01/26 08:52:27;;;;;;;39.08;17.38;;;0.50;99.90;;;;;;4954907;29;20214;-78
2022/01/26 08:54:54;;;;;;;37.38;19.33;;;0.60;99.40;;;;;;4954859;29;20234;-77
2022/01/26 08:57:20;;;;;;;35.85;16.73;;;0.50;98.40;;;;;;4954033;29;20259;-78
2022/01/26 08:59:49;;;;;;;36.35;17.05;;;0.50;98.20;;;;;;4953987;29;20222;-78
2022/01/26 09:02:15;;;;;;;35.83;16.85;;;0.50;97.50;;;;;;4953135;29;20298;-79
2022/01/26 09:04:42;;;;;;;35.97;15.93;;;0.50;97.40;;;;;;4946126;29;20240;-78
2022/01/26 09:07:14;;;;;;;36.17;16.95;;;0.50;97.20;;;;;;4953002;29;20213;-77
2022/01/26 09:09:45;;;;;;;37.92;17.60;;;0.60;97.10;;;;;;4957155;29;20230;-77
2022/01/26 09:12:15;;;;;;;36.22;18.13;;;0.70;97.00;;;;;;4956708;29;20234;-78
2022/01/26 09:14:42;;;;;;;40.72;19.42;;;0.70;96.50;;;;;;4953941;29;20214;-78
2022/01/26 09:17:11;;;;;;;39.25;18.85;;;0.80;96.30;;;;;;4948712;29;20226;-77
2022/01/26 09:19:42;;;;;;;37.50;17.23;;;0.70;96.00;;;;;;4943209;29;20206;-78
2022/01/26 09:22:10;;;;;;;37.83;17.27;;;0.80;95.60;;;;;;4943248;29;20214;-78
2022/01/26 09:24:39;;;;;;;35.35;18.25;;;0.80;95.30;;;;;;4947494;29;20683;-76
2022/01/26 09:27:09;;;;;;;35.63;16.52;;;0.80;95.10;;;;;;4948770;29;20281;-78
2022/01/26 09:29:37;;;;;;;30.75;16.20;;;0.90;95.00;;;;;;4950678;29;20238;-78
2022/01/26 09:32:06;;;;;;;37.30;16.50;;;0.90;94.30;;;;;;4951023;29;20222;-77
2022/01/26 09:34:35;;;;;;;38.75;18.60;;;0.90;93.60;;;;;;4949722;29;20215;-77
2022/01/26 09:37:03;;;;;;;34.42;16.10;;;0.80;93.30;;;;;;4950548;29;20216;-77
2022/01/26 09:39:30;;;;;;;35.42;17.98;;;0.80;93.20;;;;;;4943237;29;20237;-77
2022/01/26 09:41:58;;;;;;;36.35;16.67;;;0.70;93.00;;;;;;4941765;29;20691;-77
2022/01/26 09:44:25;;;;;;;33.83;17.17;;;0.70;93.40;;;;;;4940067;29;20723;-77
2022/01/26 09:46:53;;;;;;;36.15;16.58;;;0.80;93.80;;;;;;4940583;29;20234;-77
2022/01/26 09:49:20;;;;;;;35.22;16.63;;;0.80;93.60;;;;;;4940197;29;20239;-78
2022/01/26 09:51:51;;;;;;;34.55;15.52;;;0.80;93.50;;;;;;4939727;29;20746;-76
2022/01/26 09:54:20;;;;;;;36.90;17.20;;;0.80;93.80;;;;;;4940791;29;20675;-77
2022/01/26 09:56:51;;;;;;;34.45;15.95;;;0.90;94.20;;;;;;4942438;29;20634;-78
2022/01/26 09:59:19;;;;;;;35.83;15.95;;;0.90;93.80;;;;;;4954528;29;20207;-77
2022/01/26 10:01:51;;;;;;;33.08;15.30;;;0.90;93.60;;;;;;4954301;29;20217;-78
2022/01/26 10:04:28;;;;;;;40.22;15.50;;;0.90;93.60;;;;;;4941910;29;20214;-77
2022/01/26 10:07:08;;;;;;;38.78;16.15;;;0.90;93.60;;;;;;4940976;29;20411;-78
2022/01/26 10:18:01;;;;;;;41.90;15.63;;;0.90;93.90;;;;;;4939187;29;20274;-78
2022/01/26 10:20:28;;;;;;;35.17;17.10;;;0.90;94.50;;;;;;4940006;29;20683;-78
2022/01/26 10:23:07;;;;;;;39.50;15.70;;;0.90;94.60;;;;;;4940666;29;20202;-77
2022/01/26 10:25:34;;;;;;;31.75;14.57;;;0.80;94.00;;;;;;4941920;29;20289;-78
2022/01/26 10:28:01;;;;;;;37.75;14.65;;;0.80;94.00;;;;;;4944200;29;20582;-77
2022/01/26 10:30:28;;;;;;;35.05;15.75;;;0.80;94.50;;;;;;4944155;29;20281;-79
2022/01/26 10:32:54;;;;;;;34.35;15.93;;;0.80;94.60;;;;;;4944438;29;20217;-77
2022/01/26 10:35:21;;;;;;;29.90;14.75;;;0.80;94.40;;;;;;4952393;29;20325;-77
2022/01/26 10:37:53;;;;;;;31.70;14.98;;;0.80;94.40;;;;;;4957504;28;20207;-76
2022/01/26 10:40:25;;;;;;;30.90;15.25;;;0.80;94.50;;;;;;4956276;28;20249;-76
2022/01/26 10:43:02;;;;;;;35.95;15.15;;;0.70;94.60;;;;;;4954061;29;20314;-76
2022/01/26 10:45:45;;;;;;;38.67;15.32;;;0.80;94.90;;;;;;4955029;28;20238;-78
2022/01/26 10:48:23;;;;;;;29.20;14.07;;;0.80;94.90;;;;;;4958408;29;20198;-77
2022/01/26 10:53:40;;;;;;;24.45;14.13;;;0.70;93.00;;;;;;4955481;29;20218;-77
2022/01/26 10:56:08;;;;;;;30.00;12.95;;;0.70;92.50;;;;;;4946874;29;20597;-77
2022/01/26 10:58:35;;;;;;;25.50;13.27;;;0.70;92.00;;;;;;4942618;29;20217;-77
2022/01/26 11:01:02;;;;;;;23.90;14.27;;;0.70;91.80;;;;;;4939632;29;20217;-77
2022/01/26 11:03:29;;;;;;;24.33;12.65;;;0.80;91.80;;;;;;4940182;29;20690;-78
2022/01/26 11:05:57;;;;;;;23.05;13.10;;;1.00;91.80;;;;;;4963376;23;20245;-80
2022/01/26 11:08:25;;;;;;;23.08;14.25;;;1.10;90.90;;;;;;4947436;29;20639;-80
2022/01/26 11:10:53;;;;;;;23.25;13.52;;;1.10;90.10;;;;;;4941498;29;20267;-80
2022/01/26 11:13:30;;;;;;;21.52;13.60;;;1.10;87.90;;;;;;4941120;29;20655;-80
2022/01/26 11:16:10;;;;;;;26.92;13.35;;;1.20;87.20;;;;;;4941334;29;20237;-81
2022/01/26 11:18:54;;;;;;;23.15;13.90;;;1.20;86.30;;;;;;4941376;29;20208;-79
2022/01/26 11:21:33;;;;;;;18.63;12.52;;;1.30;85.50;;;;;;4941192;29;20661;-81
2022/01/26 11:24:09;;;;;;;17.20;11.02;;;1.30;83.40;;;;;;4940689;29;20214;-80
2022/01/26 11:26:38;;;;;;;19.50;11.50;;;1.30;82.80;;;;;;4939965;29;20298;-79
2022/01/26 11:29:19;;;;;;;18.88;11.90;;;1.30;81.70;;;;;;4941747;29;20253;-79
2022/01/26 11:31:47;;;;;;;21.52;12.23;;;1.30;82.40;;;;;;4939641;29;20577;-79
2022/01/26 11:34:18;;;;;;;22.15;12.50;;;1.40;82.50;;;;;;4939596;29;20274;-79
2022/01/26 11:36:48;;;;;;;20.30;11.52;;;1.50;82.60;;;;;;4939460;29;20253;-79
2022/01/26 11:42:18;;;;;;;23.65;14.43;;;1.60;81.80;;;;;;4941036;29;20218;-82
2022/01/26 11:45:07;;;;;;;25.60;15.07;;;1.60;81.40;;;;;;4941618;29;20277;-81
2022/01/26 11:47:37;;;;;;;32.08;14.07;;;1.50;82.10;;;;;;4940721;29;20295;-80
2022/01/26 11:50:12;;;;;;;24.67;13.68;;;1.50;82.50;;;;;;4946630;29;20237;-79
2022/01/26 11:52:40;;;;;;;26.70;14.38;;;1.50;83.00;;;;;;4941948;29;20216;-81
2022/01/26 11:55:27;;;;;;;23.27;13.82;;;1.40;83.20;;;;;;4942119;29;20226;-80
2022/01/26 11:57:55;;;;;;;27.50;14.35;;;1.40;84.90;;;;;;4941920;29;20214;-81
2022/01/26 12:00:41;;;;;;;23.98;13.45;;;1.40;85.10;;;;;;4940027;29;20209;-80
2022/01/26 12:03:23;;;;;;;29.85;16.20;;;1.40;86.30;;;;;;4950076;29;20217;-79
2022/01/26 12:05:54;;;;;;;22.65;12.10;;;1.40;86.30;;;;;;4947621;29;20329;-79
2022/01/26 12:08:35;;;;;;;23.55;13.07;;;1.40;86.00;;;;;;4947998;29;20215;-79
2022/01/26 12:11:04;;;;;;;25.25;12.75;;;1.30;86.40;;;;;;4954151;29;20214;-81
2022/01/26 12:13:33;;;;;;;27.10;14.00;;;1.30;87.00;;;;;;4953077;29;20267;-81
2022/01/26 12:16:09;;;;;;;27.95;13.00;;;1.30;87.20;;;;;;4950967;29;20265;-80
2022/01/26 12:18:41;;;;;;;28.45;13.55;;;1.20;87.50;;;;;;4948007;29;20206;-80
2022/01/26 12:32:39;;;;;;;25.35;13.40;;;1.40;89.20;;;;;;4943032;29;20243;-78
2022/01/26 12:38:05;;;;;;;31.50;12.40;;;1.30;89.00;;;;;;4951440;29;20297;-80
2022/01/26 12:43:33;;;;;;;28.20;12.18;;;1.20;90.10;;;;;;4949297;29;20347;-78
2022/01/26 12:46:00;;;;;;;24.42;10.10;;;1.20;90.10;;;;;;4956818;29;20249;-78
2022/01/26 12:48:29;;;;;;;22.48;11.32;;;1.20;90.10;;;;;;4960243;29;20299;-78
2022/01/26 12:50:58;;;;;;;23.25;11.48;;;1.20;90.10;;;;;;4961496;28;20289;-77
2022/01/26 12:53:27;;;;;;;22.15;10.93;;;1.20;90.10;;;;;;4962406;28;20194;-79
2022/01/26 12:55:59;;;;;;;25.60;12.32;;;1.10;90.20;;;;;;4962800;28;20230;-77
2022/01/26 12:58:27;;;;;;;23.92;11.80;;;1.20;90.70;;;;;;4962357;28;20191;-79
2022/01/26 13:01:01;;;;;;;27.05;12.32;;;1.20;90.70;;;;;;4959700;29;20206;-80
2022/01/26 13:03:32;;;;;;;26.67;11.30;;;1.20;90.60;;;;;;4957756;29;20206;-79
2022/01/26 13:06:11;;;;;;;22.17;10.63;;;1.30;90.90;;;;;;4958085;29;20305;-77
2022/01/26 13:08:43;;;;;;;26.13;12.02;;;1.30;90.80;;;;;;4957245;29;20276;-78
2022/01/26 13:11:10;;;;;;;26.00;13.10;;;1.20;90.10;;;;;;4944815;29;20240;-78
2022/01/26 13:13:37;;;;;;;25.52;10.88;;;1.20;90.10;;;;;;4947703;29;20289;-79
2022/01/26 13:16:15;;;;;;;25.85;11.70;;;1.20;90.10;;;;;;4962030;28;20215;-80
2022/01/26 13:22:01;;;;;;;20.35;10.35;;;1.20;90.40;;;;;;4950192;29;20222;-78
2022/01/26 13:27:19;;;;;;;20.67;11.57;;;1.30;90.20;;;;;;4956173;29;20226;-80
2022/01/26 13:29:59;;;;;;;24.05;11.15;;;1.30;90.20;;;;;;4958815;29;20226;-78
2022/01/26 13:33:03;;;;;;;25.58;11.68;;;1.40;90.20;;;;;;4959040;29;20238;-78
2022/01/26 13:38:22;;;;;;;27.10;12.02;;;1.30;89.50;;;;;;4945292;29;20290;-81
2022/01/26 13:41:04;;;;;;;21.98;10.95;;;1.40;90.00;;;;;;4946053;29;20214;-78
2022/01/26 13:52:20;;;;;;;20.80;10.50;;;1.40;87.30;;;;;;5117401;28;20218;-79
2022/01/26 13:55:01;;;;;;;18.05;8.95;;;1.40;85.60;;;;;;5123158;28;20207;-79
2022/01/26 13:57:45;;;;;;;20.55;9.27;;;1.40;85.40;;;;;;5106904;28;20207;-78
2022/01/26 14:00:16;;;;;;;19.13;9.40;;;1.40;84.10;;;;;;5105537;28;20247;-81
2022/01/26 14:02:43;;;;;;;19.25;9.00;;;1.50;83.60;;;;;;5158740;22;20255;-78
2022/01/26 14:05:13;;;;;;;22.83;10.35;;;1.50;82.60;;;;;;5142736;28;20207;-78
2022/01/26 14:07:40;;;;;;;20.55;9.13;;;1.40;82.30;;;;;;5142747;27;20367;-79
2022/01/26 14:10:08;;;;;;;18.52;10.05;;;1.40;81.00;;;;;;5139021;28;20306;-78
2022/01/26 14:12:40;;;;;;;17.77;10.00;;;1.30;81.80;;;;;;5148053;27;20222;-78
2022/01/26 14:15:09;;;;;;;15.70;8.48;;;1.40;82.50;;;;;;5151745;28;20208;-78
2022/01/26 14:17:52;;;;;;;19.42;9.75;;;1.40;82.40;;;;;;5151614;28;20196;-78
2022/01/26 14:20:41;;;;;;;22.08;10.20;;;1.40;82.40;;;;;;5146869;28;20204;-78
2022/01/26 14:23:19;;;;;;;23.58;10.07;;;1.40;82.40;;;;;;5134864;28;20214;-77
2022/01/26 14:25:49;;;;;;;17.05;9.73;;;1.40;82.50;;;;;;5134583;27;20207;-78
2022/01/26 14:28:20;;;;;;;17.42;9.75;;;1.50;82.20;;;;;;5135174;28;20246;-79
2022/01/26 14:30:55;;;;;;;19.48;11.10;;;1.50;81.90;;;;;;5133361;28;20567;-80
2022/01/26 14:33:44;;;;;;;18.38;9.80;;;1.50;81.10;;;;;;5137195;27;20207;-78
2022/01/26 14:36:27;;;;;;;18.55;9.88;;;1.50;80.90;;;;;;5141168;27;20293;-78
2022/01/26 15:42:54;;;;;;;18.55;9.85;;;1.40;78.40;;;;;;5060080;28;20197;-79
2022/01/26 15:51:02;;;;;;;16.40;9.68;;;1.40;78.40;;;;;;5065101;28;20232;-79
2022/01/26 15:59:06;;;;;;;19.83;10.88;;;1.40;78.40;;;;;;5053460;28;20260;-79
2022/01/26 16:04:43;;;;;;;24.25;9.85;;;1.40;78.40;;;;;;5054154;28;20205;-81
2022/01/26 16:07:18;;;;;;;17.45;9.05;;;1.30;78.30;;;;;;5040002;28;20235;-78
2022/01/26 16:21:04;;;;;;;20.60;10.40;;;1.40;78.40;;;;;;5017077;28;20213;-79